D95

Dupont-Lapeer Airport

Lapeer, Michigan, USA
METAR KD95 212235Z AUTO 00000KT 10SM SCT012 BKN026 OVC110 21/19 A2981 RMK AO2 T02100185
Observed Flight Rules
Jul-21 @ 22:35 UTC (23 minutes ago) Marginal Visual Flight Rules
Visibility Clouds
10 miles
  • Scattered at 1,200' AGL
  • Broken at 2,600' AGL
  • Overcast at 11,000' AGL
Temperatures Readings
Current 21°C / 70°F
Dewpoint 19°C / 66°F
Humidity 88%
Altimeter 29.81" Hg
Pressure 1009 hPa
Elevation 255
METAR KD95 212235Z AUTO 00000KT 10SM SCT012 BKN026 OVC110 21/19 A2981 RMK AO2 T02100185
Observed Flight Rules
Jul-21 @ 22:35 UTC
(23 minutes ago)
MVFR
Clouds
  • Scattered at 1,200' AGL
  • Broken at 2,600' AGL
  • Overcast at 11,000' AGL
Temperature Dewpoint
21°C / 70°F 19°C / 66°F
Humidity Altimeter Pressure
88% 29.81" Hg 1009 hPa